CheckWX is a tool to help pilots better visualize weather data.  It is not intended as a substitute for an official pre-flight weather briefing.

19:44:16 UTC

KALS METAR
San Luis Valley Regional / Bergman Field Airport
Alamosa, Colorado, USA
Current

52 mins ago

KALS 191852Z AUTO 18017KT 10SM SCT070 BKN085 M05/M11 A2966 RMK AO2 SLP072 T10501106
Observed
Feb-19 @ 18:52 UTC
Wind
  • 180° at 17 KTS
Visibility
10 SM
Flight Rules
VFR
Cloud Levels
  • Scattered at 7,000' AGL
  • Broken at 8,500' AGL
Temperature
-5°C / 23°F
Dewpoint
-11°C / 12°F
Humidity
63%
Altimeter
29.66" Hg
Pressure
1007.2 hPa
Previous

2 hours ago

KALS 191752Z AUTO 17015G24KT 10SM FEW080 M06/M11 A2968 RMK AO2 PK WND 18026/1733 SLP082 T10611111 11056 21089 58010
Observed
Feb-19 @ 17:52 UTC
Wind
  • 170° at 15 KTS
  • Gusting to 24 KTS
Visibility
10 SM
Flight Rules
VFR
Cloud Levels
  • Few at 8,000' AGL
Temperature
-6°C / 21°F
Dewpoint
-11°C / 12°F
Humidity
68%
Altimeter
29.68" Hg
Pressure
1008.2 hPa
Previous

3 hours ago

KALS 191652Z AUTO 17013KT 10SM BKN070 BKN080 M06/M10 A2970 RMK AO2 SLP088 T10611100
Observed
Feb-19 @ 16:52 UTC
Wind
  • 170° at 13 KTS
Visibility
10 SM
Flight Rules
VFR
Cloud Levels
  • Broken at 7,000' AGL
  • Broken at 8,000' AGL
Temperature
-6°C / 21°F
Dewpoint
-10°C / 14°F
Humidity
74%
Altimeter
29.7" Hg
Pressure
1008.8 hPa